Poling, Indiana
Current Conditions -  °F | °C
As of 7:35 AM on Saturday 25 Oct 2014 (Local Time) from KVES Reporting Station
Overcast Overcast  
Wind Chill: 11°   Ceiling: 3900
Heat Index: 11°   Visibility: 10mi
Dew Point: 10°   Wind: 5mph
Humidity: 94%   Direction: 220°SW
Pressure: 29.95"   Gusts: NA
Location:  40.5419°N, 84.8968°W
Report Text: KVES 251135Z AUTO 22004KT 10SM OVC039 11/10 A2995 RMK AO2
Loading
Personal Weather Stations






























Interactive Weather Map
Tropical Storm Tracking
New forecast layout! Learn more

10-Day Weather Forecast

Advertisements
Track Severe Weather on mobile